الصفحة الرئيسية
METAR-TAF:

METAR-TAF

مطار :

Foz do Iguaçu, بارانا, البرازيل

دائرة عرض: 25-31S, خط طول: 054-35W, ارتفاع: 180 متر

مراقبة الطقس الحالي

تاريخ ووقت الإصدار 54 دقيقة قبل الساعة 18:00UTC
ريح 7 عقدة من الشمال/الشمال الغربي
درجة الحرارة 30°درجة مئوية
الرطوبة 46%
ضغط 1016 hPa
الرؤية 10 كم أو أكثر
الغيوم لا تقل 1500 م ولا وجود لمزنة ركامية السحاب الأسود

METAR: SBFI 231800Z 34007KT CAVOK 30/17 Q1016

زمن: 15:54 (18:54 UTC)

توقعات

تاريخ ووقت الإصدار 2ساعات و 39 دقيقة قبل الساعة 16:15UTC
التوقعات صالحة من23 الساعة 18 UTC إلى 24 الساعة 18 UTC
ريح 8 عقدة من الشمال/الشمال الشرقي
الرؤية 10 كم أو أكثر
الغيوم لا تقل 1500 م ولا وجود لمزنة ركامية السحاب الأسود
أصبح
من 23 الساعة 21 UTC إلى 23 الساعة 23 UTC
ريح 5 عقدة من الجنوب الشرقي
أصبح
من 24 الساعة 03 UTC إلى 24 الساعة 05 UTC
ريح 4 عقدة من الشرق/الجنوب الشرقي
أصبح
من 24 الساعة 16 UTC إلى 24 الساعة 18 UTC
ريح 5 عقدة من الشمال

TAF: SBFI 231615Z 2318/2418 02008KT CAVOK TX33/2318Z TN23/2409Z BECMG 2321/2323 14005KT BECMG 2403/2405 12004KT BECMG 2416/2418 36005KT RMK PCX

أرصاد الطقس والتوقعات من أكثر من 4000 مطار (تقارير الطقس للمطار METAR والتنبؤ بالطقس بالمطارTAF).

المحطات المتاحة هي النقط الصفراء والحمراء على الخريطة.

حرك المؤشر فوق النقطة لمعرفة اسم المحطة.

ثم انقر لمعرفة أرصاد وتوقعات الطقس.

لتغيير الخارطة: اضغط على الأزرار الخضراء مع رمز الصليب الأسود للتكبير. على الزر الأخضر مع شرطة للتصغير، أو على الأسهم الخضراء للخرائط المجاورة.


METAR-TAF: